This is the latest recevied weather packets stored in our database for station/object WX4FUN-13. If no packets are shown the sender has not sent any weather packets the latest 10 day(s).
| Time | Temp. | Humidity | Pressure | Rain* | Wind** | Luminosity | Snow |
|---|---|---|---|---|---|---|---|
| 1777900870 | 16.11° C | 41% | 1011.7 hPa | 0 mm | - | 532 W/m² | - |
| 1777900282 | 15.56° C | 42% | 1011.9 hPa | 0 mm | - | 516 W/m² | - |
| 1777899670 | 15° C | 43% | 1011.9 hPa | 0 mm | - | 487 W/m² | - |
| 1777899070 | 14.44° C | 45% | 1012 hPa | 0 mm | - | 412 W/m² | - |
| 1777898466 | 13.89° C | 49% | 1012.2 hPa | 0 mm | - | 423 W/m² | - |
| 1777897867 | 13.33° C | 50% | 1012.3 hPa | 0 mm | - | 386 W/m² | - |
| 1777897267 | 12.78° C | 52% | 1012.3 hPa | 0 mm | - | 350 W/m² | - |
| 1777896665 | 11.67° C | 54% | 1012.4 hPa | 0 mm | - | 313 W/m² | - |
| 1777896065 | 10.56° C | 58% | 1012.5 hPa | 0 mm | - | 275 W/m² | - |
| 1777895467 | 9.44° C | 62% | 1012.4 hPa | 0 mm | - | 71 W/m² | - |
| 1777894852 | 8.89° C | 65% | 1012.5 hPa | 0 mm | - | 221 W/m² | - |
| 1777894253 | 7.78° C | 70% | 1012.5 hPa | 0 mm | - | 184 W/m² | - |
| 1777893640 | 6.67° C | 75% | 1012.5 hPa | 0 mm | - | 166 W/m² | - |
| 1777893040 | 5° C | 84% | 1012.5 hPa | 0 mm | - | 54 W/m² | - |
| 1777892440 | 3.89° C | 87% | 1012.4 hPa | 0 mm | - | 51 W/m² | - |
| 1777891839 | 3.89° C | 86% | 1012.3 hPa | 0 mm | - | 42 W/m² | - |
| 1777891239 | 3.33° C | 86% | 1012.2 hPa | 0 mm | - | 29 W/m² | - |
| 1777890638 | 2.78° C | 88% | 1012.1 hPa | 0 mm | - | 22 W/m² | - |
| 1777890024 | 2.78° C | 88% | 1012.1 hPa | 0 mm | - | 15 W/m² | - |
| 1777889425 | 2.78° C | 88% | 1012.1 hPa | 0 mm | - | 14 W/m² | - |
| 1777888825 | 2.22° C | 87% | 1012 hPa | 0 mm | - | 12 W/m² | - |
| 1777888225 | 2.78° C | 87% | 1011.9 hPa | 0 mm | - | 6 W/m² | - |
| 1777887624 | 2.22° C | 86% | 1011.8 hPa | 0 mm | - | 2 W/m² | - |
| 1777887025 | 2.78° C | 86% | 1011.7 hPa | 0 mm | - | 0 W/m² | - |
| 1777886409 | 2.78° C | 85% | 1011.6 hPa | 0 mm | - | 0 W/m² | - |
* Rain latest hour (hover to see other rain measurements)
** Current wind speed in m/s (hover to see current wind gust speed)